Time;durP1;ratioP1;P1;durP2;ratioP2;P2;SDS_P1;SDS_P2;PMS_P1;PMS_P2;Temp;Humidity;BMP_temperature;BMP_pressure;BME280_temperature;BME280_humidity;BME280_pressure;Samples;Min_cycle;Max_cycle;Signal;HPM_P1;HPM_P2
2022/06/10 00:02:08;;;;;;;;;;;436.00;2355.20;;;;;;5071682;28;19995;-87
2022/06/10 00:04:34;;;;;;;;;;;435.90;2355.20;;;;;;5063793;28;19905;-84
2022/06/10 00:07:00;;;;;;;;;;;435.90;2355.20;;;;;;5057471;28;19904;-85
2022/06/10 00:09:26;;;;;;;;;;;435.90;2355.20;;;;;;5071566;28;19935;-85
2022/06/10 00:11:51;;;;;;;;;;;435.90;2355.20;;;;;;5065901;28;19904;-86
2022/06/10 00:14:17;;;;;;;;;;;436.00;2355.20;;;;;;5071482;28;19936;-86
2022/06/10 00:16:42;;;;;;;;;;;435.80;2355.20;;;;;;5064589;28;19911;-85
2022/06/10 00:19:08;;;;;;;;;;;435.90;2355.20;;;;;;5071423;28;19904;-85
2022/06/10 00:21:33;;;;;;;;;;;435.80;2355.20;;;;;;5063591;28;19966;-86
2022/06/10 00:23:59;;;;;;;;;;;435.70;2355.20;;;;;;5056945;28;19916;-86
2022/06/10 00:26:24;;;;;;;;;;;435.70;2355.20;;;;;;5072738;28;19905;-86
2022/06/10 00:28:50;;;;;;;;;;;435.60;2355.20;;;;;;5065608;28;19913;-86
2022/06/10 00:31:16;;;;;;;;;;;435.70;2355.20;;;;;;5064564;28;19911;-86
2022/06/10 00:33:42;;;;;;;;;;;435.80;2355.20;;;;;;5062809;28;19911;-86
2022/06/10 00:36:09;;;;;;;;;;;435.90;2355.20;;;;;;5074777;28;19904;-85
2022/06/10 00:38:34;;;;;;;;;;;436.00;2355.20;;;;;;5058202;28;19911;-88
2022/06/10 00:41:00;;;;;;;;;;;435.90;2355.20;;;;;;5071060;28;19908;-87
2022/06/10 00:43:27;;;;;;;;;;;436.00;2355.20;;;;;;5074790;28;19912;-87
2022/06/10 00:45:55;;;;;;;;;;;435.70;2355.20;;;;;;5069117;28;19904;-87
2022/06/10 00:48:21;;;;;;;;;;;435.80;2355.20;;;;;;5074520;28;19912;-87
2022/06/10 00:50:47;;;;;;;;;;;435.90;2355.20;;;;;;5068205;28;19911;-84
2022/06/10 00:53:15;;;;;;;;;;;436.00;2355.20;;;;;;5074370;28;19973;-85
2022/06/10 00:55:42;;;;;;;;;;;436.10;2355.20;;;;;;5067030;28;20003;-87
2022/06/10 00:58:17;;;;;;;;;;;460.80;2380.80;;;;;;5060444;28;19904;-87
2022/06/10 01:00:42;;;;;;;;;;;460.80;2380.80;;;;;;5057285;28;19916;-85
2022/06/10 01:03:08;;;;;;;;;;;436.10;2355.20;;;;;;5057454;28;20282;-86
2022/06/10 01:05:33;;;;;;;;;;;435.90;2355.20;;;;;;5065627;28;19951;-87
2022/06/10 01:08:04;;;;;;;;;;;435.80;2355.20;;;;;;5073577;28;19916;-87
2022/06/10 01:10:34;;;;;;;;;;;435.80;2355.20;;;;;;5066074;28;19910;-87
2022/06/10 01:13:17;;;;;;;;;;;435.90;2355.20;;;;;;5069544;28;19904;-87
2022/06/10 01:15:43;;;;;;;;;;;435.90;2355.20;;;;;;5073406;28;20252;-87
2022/06/10 01:18:08;;;;;;;;;;;435.90;2355.20;;;;;;5073819;28;19953;-87
2022/06/10 01:20:34;;;;;;;;;;;435.70;2355.20;;;;;;5057116;28;19908;-87
2022/06/10 01:23:15;;;;;;;;;;;435.80;2355.20;;;;;;5073359;28;19908;-87
2022/06/10 01:25:58;;;;;;;;;;;435.60;2355.20;;;;;;5072144;28;19928;-84
2022/06/10 01:28:42;;;;;;;;;;;435.70;2355.20;;;;;;5062041;28;19913;-85
2022/06/10 01:31:19;;;;;;;;;;;435.60;2355.20;;;;;;5070710;28;19908;-86
2022/06/10 01:34:04;;;;;;;;;;;435.70;2355.20;;;;;;5057168;28;19924;-86
2022/06/10 01:36:38;;;;;;;;;;;435.80;2355.20;;;;;;5065097;28;19905;-83
2022/06/10 01:39:23;;;;;;;;;;;435.90;2355.20;;;;;;5069792;28;19904;-85
2022/06/10 01:41:59;;;;;;;;;;;435.90;2355.20;;;;;;5059607;28;19905;-85
2022/06/10 01:44:28;;;;;;;;;;;435.80;2355.20;;;;;;5073776;28;19904;-85
2022/06/10 01:47:15;;;;;;;;;;;436.00;2355.20;;;;;;5054916;28;19904;-85
2022/06/10 01:50:10;;;;;;;;;;;436.00;2355.20;;;;;;5065961;28;19920;-84
2022/06/10 01:52:39;;;;;;;;;;;460.80;2380.80;;;;;;4986512;28;19996;-86
2022/06/10 01:55:20;;;;;;;;;;;461.00;2380.80;;;;;;5073400;28;19932;-85
2022/06/10 01:58:01;;;;;;;;;;;460.90;2380.80;;;;;;5073299;28;19958;-86
2022/06/10 02:00:30;;;;;;;;;;;461.10;2380.80;;;;;;5073407;28;19905;-84
2022/06/10 02:03:03;;;;;;;;;;;461.10;2380.80;;;;;;5068725;28;19904;-85
2022/06/10 02:05:31;;;;;;;;;;;461.00;2380.80;;;;;;5073251;28;19904;-86
2022/06/10 02:08:20;;;;;;;;;;;460.90;2380.80;;;;;;5068511;28;19905;-85
2022/06/10 02:10:51;;;;;;;;;;;460.90;2380.80;;;;;;5053040;28;19911;-85
2022/06/10 02:13:18;;;;;;;;;;;460.80;2380.80;;;;;;5049375;28;19943;-86
2022/06/10 02:15:47;;;;;;;;;;;460.90;2380.80;;;;;;5066443;28;19904;-86
2022/06/10 02:18:26;;;;;;;;;;;460.90;2380.80;;;;;;5073317;28;19904;-86
2022/06/10 02:21:00;;;;;;;;;;;460.90;2380.80;;;;;;5054279;28;19905;-86
2022/06/10 02:23:28;;;;;;;;;;;461.00;2380.80;;;;;;5072255;28;19915;-85
2022/06/10 02:25:55;;;;;;;;;;;461.00;2380.80;;;;;;5035483;28;19916;-85
2022/06/10 02:28:25;;;;;;;;;;;460.90;2380.80;;;;;;5036079;28;19913;-84
2022/06/10 02:30:59;;;;;;;;;;;460.90;2380.80;;;;;;5035924;28;19947;-84
2022/06/10 02:33:25;;;;;;;;;;;461.00;2380.80;;;;;;5053192;28;19966;-84
2022/06/10 02:35:56;;;;;;;;;;;461.00;2380.80;;;;;;5022179;28;20407;-85
2022/06/10 02:38:29;;;;;;;;;;;461.10;2380.80;;;;;;5036190;28;20000;-84
2022/06/10 02:40:55;;;;;;;;;;;461.10;2380.80;;;;;;5035362;28;20586;-85
2022/06/10 02:43:25;;;;;;;;;;;461.10;2380.80;;;;;;5035917;28;19949;-85
2022/06/10 02:46:09;;;;;;;;;;;461.10;2380.80;;;;;;5035671;28;19905;-85
2022/06/10 02:48:51;;;;;;;;;;;461.10;2380.80;;;;;;5030889;28;19919;-85
2022/06/10 02:51:19;;;;;;;;;;;461.00;2380.80;;;;;;5035595;28;19944;-85
2022/06/10 02:53:45;;;;;;;;;;;461.00;2380.80;;;;;;5035153;28;19905;-84
2022/06/10 02:56:25;;;;;;;;;;;461.10;2380.80;;;;;;5035866;28;19927;-83
2022/06/10 03:01:44;;;;;;;;;;;461.10;2380.80;;;;;;5053289;28;20038;-84
2022/06/10 03:04:34;;;;;;;;;;;461.20;2380.80;;;;;;5035695;28;19905;-84
2022/06/10 03:07:08;;;;;;;;;;;461.20;2380.80;;;;;;5035127;28;19954;-84
2022/06/10 03:09:43;;;;;;;;;;;461.20;2380.80;;;;;;5035080;28;19913;-84
2022/06/10 03:12:27;;;;;;;;;;;461.30;2380.80;;;;;;5035349;28;19905;-85
2022/06/10 03:15:15;;;;;;;;;;;461.30;2380.80;;;;;;5021824;28;19996;-84
2022/06/10 03:18:00;;;;;;;;;;;461.30;2380.80;;;;;;5024289;28;19905;-83
2022/06/10 03:20:28;;;;;;;;;;;461.30;2380.80;;;;;;5035270;28;19950;-84
2022/06/10 03:23:00;;;;;;;;;;;461.60;2380.80;;;;;;5034527;28;19908;-86
2022/06/10 03:25:28;;;;;;;;;;;461.40;2380.80;;;;;;5055936;28;19920;-85
2022/06/10 03:28:00;;;;;;;;;;;461.40;2380.80;;;;;;5071780;28;19975;-85
2022/06/10 03:33:08;;;;;;;;;;;461.50;2380.80;;;;;;5052981;28;20015;-86
2022/06/10 03:35:45;;;;;;;;;;;461.40;2380.80;;;;;;5034855;28;19912;-86
2022/06/10 03:38:12;;;;;;;;;;;461.30;2380.80;;;;;;5035314;28;19904;-86
2022/06/10 03:40:38;;;;;;;;;;;461.20;2380.80;;;;;;5034538;28;19905;-86
2022/06/10 03:43:04;;;;;;;;;;;461.20;2380.80;;;;;;5026773;28;19905;-86
2022/06/10 03:45:56;;;;;;;;;;;461.20;2380.80;;;;;;5035085;28;19983;-87
2022/06/10 03:48:23;;;;;;;;;;;461.10;2380.80;;;;;;5032647;28;19912;-87
2022/06/10 03:50:49;;;;;;;;;;;461.10;2380.80;;;;;;5032659;28;19999;-86
2022/06/10 03:53:15;;;;;;;;;;;461.10;2380.80;;;;;;5023758;28;19952;-86
2022/06/10 03:55:41;;;;;;;;;;;461.10;2380.80;;;;;;5035033;28;19912;-86
2022/06/10 03:58:07;;;;;;;;;;;461.20;2380.80;;;;;;5019524;28;19905;-85
2022/06/10 04:00:33;;;;;;;;;;;461.30;2380.80;;;;;;5019539;28;19916;-86
2022/06/10 04:02:58;;;;;;;;;;;461.20;2380.80;;;;;;5034946;28;19913;-86
2022/06/10 04:05:24;;;;;;;;;;;461.30;2380.80;;;;;;5035003;28;19908;-87
2022/06/10 04:07:50;;;;;;;;;;;461.20;2380.80;;;;;;5038785;28;19905;-86
2022/06/10 04:10:17;;;;;;;;;;;461.40;2380.80;;;;;;5038181;28;19955;-85
2022/06/10 04:12:43;;;;;;;;;;;461.30;2380.80;;;;;;5038672;28;19915;-85
2022/06/10 04:15:10;;;;;;;;;;;461.30;2380.80;;;;;;5025400;28;19905;-86
2022/06/10 04:17:35;;;;;;;;;;;461.30;2380.80;;;;;;5037200;28;19953;-86
2022/06/10 04:20:01;;;;;;;;;;;461.30;2380.80;;;;;;5027856;28;19981;-86
2022/06/10 04:22:27;;;;;;;;;;;461.40;2380.80;;;;;;5037813;28;19978;-87
2022/06/10 04:24:52;;;;;;;;;;;461.40;2380.80;;;;;;5038434;28;19904;-87
2022/06/10 04:27:18;;;;;;;;;;;461.40;2380.80;;;;;;5036767;28;20351;-87
2022/06/10 04:29:44;;;;;;;;;;;461.50;2380.80;;;;;;5025119;28;19913;-87
2022/06/10 04:32:10;;;;;;;;;;;486.50;2380.80;;;;;;5048377;28;19952;-87
2022/06/10 04:34:36;;;;;;;;;;;461.50;2380.80;;;;;;5040868;28;19986;-86
2022/06/10 04:37:03;;;;;;;;;;;461.50;2380.80;;;;;;5054855;28;20298;-85
2022/06/10 04:39:28;;;;;;;;;;;461.50;2380.80;;;;;;5054603;28;20394;-86
2022/06/10 04:41:54;;;;;;;;;;;461.60;2380.80;;;;;;5054734;28;19905;-86
2022/06/10 04:44:19;;;;;;;;;;;461.60;2380.80;;;;;;5054194;28;19996;-87
2022/06/10 04:46:45;;;;;;;;;;;461.60;2380.80;;;;;;5054701;28;19950;-86
2022/06/10 04:49:11;;;;;;;;;;;461.70;2380.80;;;;;;5051326;28;19959;-85
2022/06/10 04:51:37;;;;;;;;;;;486.40;2380.80;;;;;;5059230;28;19904;-84
2022/06/10 04:54:03;;;;;;;;;;;486.40;2380.80;;;;;;5063052;28;19905;-85
2022/06/10 04:56:30;;;;;;;;;;;461.70;2380.80;;;;;;5040002;28;20466;-84
2022/06/10 04:58:55;;;;;;;;;;;486.40;2380.80;;;;;;5054537;28;20423;-85
2022/06/10 05:01:21;;;;;;;;;;;486.40;2380.80;;;;;;5054306;28;20019;-85
2022/06/10 05:03:47;;;;;;;;;;;486.40;2380.80;;;;;;5053951;28;20324;-86
2022/06/10 05:06:12;;;;;;;;;;;486.40;2380.80;;;;;;5045731;28;19912;-82
2022/06/10 05:08:38;;;;;;;;;;;486.40;2380.80;;;;;;5047806;28;19932;-83
2022/06/10 05:11:04;;;;;;;;;;;486.40;2380.80;;;;;;5046578;28;19997;-84
2022/06/10 05:13:29;;;;;;;;;;;486.70;2380.80;;;;;;5046108;28;19905;-85
2022/06/10 05:15:55;;;;;;;;;;;486.70;2380.80;;;;;;5053107;28;20251;-84
2022/06/10 05:18:22;;;;;;;;;;;486.80;2380.80;;;;;;5053455;28;19905;-84
2022/06/10 05:20:48;;;;;;;;;;;487.10;2380.80;;;;;;5054159;28;19950;-84
2022/06/10 05:23:16;;;;;;;;;;;487.20;2380.80;;;;;;5053708;28;19905;-84
2022/06/10 05:25:42;;;;;;;;;;;487.30;2380.80;;;;;;5053814;28;20928;-84
2022/06/10 05:28:08;;;;;;;;;;;487.20;2380.80;;;;;;5053096;28;19905;-84
2022/06/10 05:30:34;;;;;;;;;;;512.10;2380.80;;;;;;5033677;28;19911;-84
2022/06/10 05:33:00;;;;;;;;;;;512.40;2380.80;;;;;;5029769;28;19905;-84
2022/06/10 05:35:26;;;;;;;;;;;512.60;2380.80;;;;;;5037106;28;19944;-83
2022/06/10 05:37:52;;;;;;;;;;;512.50;2252.80;;;;;;5033569;28;19967;-82
2022/06/10 05:40:19;;;;;;;;;;;512.90;2380.80;;;;;;5036681;28;19905;-83
2022/06/10 05:42:44;;;;;;;;;;;537.70;2406.40;;;;;;5036552;28;19912;-83
2022/06/10 05:45:13;;;;;;;;;;;537.60;2406.40;;;;;;5034398;28;19909;-82
2022/06/10 05:47:40;;;;;;;;;;;512.90;2304.00;;;;;;5021502;28;19963;-82
2022/06/10 05:50:08;;;;;;;;;;;537.60;2406.40;;;;;;5030182;28;19913;-83
2022/06/10 05:52:33;;;;;;;;;;;537.60;2406.40;;;;;;5035923;28;20267;-84
2022/06/10 05:55:00;;;;;;;;;;;537.80;2406.40;;;;;;5016763;28;19905;-83
2022/06/10 05:57:28;;;;;;;;;;;537.80;2406.40;;;;;;5027379;28;20288;-86
2022/06/10 05:59:54;;;;;;;;;;;;;;;;;;5025108;28;19959;-84
2022/06/10 06:02:19;;;;;;;;;;;;;;;;;;5044718;28;20008;-84
2022/06/10 06:04:45;;;;;;;;;;;;;;;;;;5022366;28;19927;-85
2022/06/10 06:07:11;;;;;;;;;;;;;;;;;;5030753;28;19920;-85
2022/06/10 06:09:37;;;;;;;;;;;;;;;;;;5040830;28;19960;-85
2022/06/10 06:12:03;;;;;;;;;;;;;;;;;;5028653;28;19904;-84
2022/06/10 06:14:29;;;;;;;;;;;;;;;;;;5042601;28;19955;-84
2022/06/10 06:16:55;;;;;;;;;;;;;;;;;;5029109;28;19944;-85
2022/06/10 06:19:21;;;;;;;;;;;;;;;;;;5036188;28;19904;-85
2022/06/10 06:21:47;;;;;;;;;;;;;;;;;;5036058;28;19925;-85
2022/06/10 06:24:13;;;;;;;;;;;;;;;;;;5035820;28;19950;-84
2022/06/10 06:26:39;;;;;;;;;;;;;;;;;;5035944;28;19950;-83
2022/06/10 06:29:04;;;;;;;;;;;615.10;2432.00;;;;;;5035181;28;20011;-84
2022/06/10 06:31:30;;;;;;;;;;;615.20;2432.00;;;;;;5040407;28;20007;-84
2022/06/10 06:33:56;;;;;;;;;;;615.20;2432.00;;;;;;5052154;28;20358;-84
2022/06/10 06:36:23;;;;;;;;;;;615.00;2432.00;;;;;;5052523;28;19904;-84
2022/06/10 06:38:49;;;;;;;;;;;589.30;2432.00;;;;;;5055346;28;19904;-86
2022/06/10 06:41:14;;;;;;;;;;;589.50;2432.00;;;;;;5063328;28;19944;-85
2022/06/10 06:43:40;;;;;;;;;;;589.70;2432.00;;;;;;5051088;28;20356;-85
2022/06/10 06:46:05;;;;;;;;;;;614.40;2432.00;;;;;;5039729;28;20357;-85
2022/06/10 06:48:31;;;;;;;;;;;589.70;2432.00;;;;;;5052302;28;19912;-86
2022/06/10 06:50:57;;;;;;;;;;;589.50;2432.00;;;;;;5057055;28;19950;-85
2022/06/10 06:53:22;;;;;;;;;;;589.20;2432.00;;;;;;5057934;28;20271;-85
2022/06/10 06:55:48;;;;;;;;;;;589.10;2432.00;;;;;;5052477;28;19905;-84
2022/06/10 06:58:14;;;;;;;;;;;589.00;2432.00;;;;;;5051911;28;19904;-85
2022/06/10 07:00:40;;;;;;;;;;;588.90;2432.00;;;;;;5048950;28;20356;-84
2022/06/10 07:03:06;;;;;;;;;;;589.00;2432.00;;;;;;5051689;28;19911;-83
2022/06/10 07:05:32;;;;;;;;;;;589.20;2432.00;;;;;;5058492;28;19926;-83
2022/06/10 07:07:58;;;;;;;;;;;589.10;2432.00;;;;;;5058767;28;19904;-83
2022/06/10 07:10:24;;;;;;;;;;;589.10;2432.00;;;;;;5051369;28;20352;-83
2022/06/10 07:12:50;;;;;;;;;;;589.50;2432.00;;;;;;5051905;28;19928;-83
2022/06/10 07:15:16;;;;;;;;;;;614.90;2432.00;;;;;;5051298;28;20356;-86
2022/06/10 07:17:41;;;;;;;;;;;614.70;2432.00;;;;;;5051953;28;19991;-86
2022/06/10 07:20:08;;;;;;;;;;;589.60;2432.00;;;;;;5051622;28;19995;-86
2022/06/10 07:22:34;;;;;;;;;;;614.70;2432.00;;;;;;5052649;28;19951;-86
2022/06/10 07:25:00;;;;;;;;;;;614.90;2432.00;;;;;;5048714;28;19909;-87
2022/06/10 07:27:25;;;;;;;;;;;614.40;2432.00;;;;;;5045184;28;19947;-89
2022/06/10 07:29:51;;;;;;;;;;;614.40;2432.00;;;;;;5039178;28;19913;-86
2022/06/10 07:32:17;;;;;;;;;;;589.70;2432.00;;;;;;5051579;28;19916;-87
2022/06/10 07:34:42;;;;;;;;;;;589.50;2432.00;;;;;;5050137;28;19909;-86
2022/06/10 07:37:08;;;;;;;;;;;589.00;2432.00;;;;;;5037393;28;20340;-86
2022/06/10 07:39:34;;;;;;;;;;;564.10;2432.00;;;;;;5051131;28;19908;-87
2022/06/10 07:42:00;;;;;;;;;;;589.30;2432.00;;;;;;5036749;28;20012;-87
2022/06/10 07:44:27;;;;;;;;;;;589.10;2432.00;;;;;;5049180;28;19905;-87
2022/06/10 07:46:54;;;;;;;;;;;589.10;2432.00;;;;;;5041875;28;19905;-87
2022/06/10 07:49:20;;;;;;;;;;;589.50;2432.00;;;;;;5055436;28;19912;-87
2022/06/10 07:51:46;;;;;;;;;;;614.70;2432.00;;;;;;5055623;28;20352;-86
2022/06/10 07:54:12;;;;;;;;;;;614.70;2432.00;;;;;;5044560;28;19912;-87
2022/06/10 07:56:37;;;;;;;;;;;589.60;2432.00;;;;;;5067118;28;19905;-86
2022/06/10 07:59:03;;;;;;;;;;;614.70;2432.00;;;;;;5055347;28;19904;-85
2022/06/10 08:01:29;;;;;;;;;;;614.80;2432.00;;;;;;5040669;28;19905;-85
2022/06/10 08:03:58;;;;;;;;;;;614.70;2432.00;;;;;;5043193;28;19978;-85
2022/06/10 08:06:24;;;;;;;;;;;614.70;2432.00;;;;;;5041490;28;19934;-85
2022/06/10 08:08:50;;;;;;;;;;;;;;;;;;5041383;28;19920;-85
2022/06/10 08:11:16;;;;;;;;;;;;;;;;;;5043326;28;20280;-85
2022/06/10 08:13:42;;;;;;;;;;;;;;;;;;5065713;28;19905;-85
2022/06/10 08:16:08;;;;;;;;;;;;;;;;;;5035456;28;19905;-85
2022/06/10 08:18:34;;;;;;;;;;;665.90;2432.00;;;;;;5066537;28;20002;-85
2022/06/10 08:23:44;;;;;;;;;;;691.80;2432.00;;;;;;5047269;28;20314;-85
2022/06/10 08:26:11;;;;;;;;;;;666.20;2432.00;;;;;;5049541;28;19905;-85
2022/06/10 08:28:37;;;;;;;;;;;665.70;2432.00;;;;;;5054751;28;19995;-85
2022/06/10 08:31:03;;;;;;;;;;;665.90;2432.00;;;;;;5041735;28;19917;-86
2022/06/10 08:33:29;;;;;;;;;;;666.10;2432.00;;;;;;5054445;28;19905;-85
2022/06/10 08:35:55;;;;;;;;;;;;;;;;;;5054474;28;20000;-85
2022/06/10 08:38:21;;;;;;;;;;;;;;;;;;5054763;28;19908;-85
2022/06/10 08:40:47;;;;;;;;;;;;;;;;;;5055672;28;19912;-85
2022/06/10 08:43:13;;;;;;;;;;;;;;;;;;5054324;28;19904;-86
2022/06/10 08:45:39;;;;;;;;;;;;;;;;;;5052921;28;19915;-85
2022/06/10 08:48:04;;;;;;;;;;;;;;;;;;5058486;28;19987;-86
2022/06/10 08:50:30;;;;;;;;;;;;;;;;;;5054679;28;19905;-86
2022/06/10 08:52:57;;;;;;;;;;;;;;;;;;5052322;28;19991;-86
2022/06/10 08:55:23;;;;;;;;;;;;;;;;;;5058393;28;19905;-86
2022/06/10 08:57:49;;;;;;;;;;;;;;;;;;5055467;28;20042;-85
2022/06/10 09:00:15;;;;;;;;;;;;;;;;;;5054302;28;19955;-86
2022/06/10 09:02:41;;;;;;;;;;;;;;;;;;5054371;28;19904;-86
2022/06/10 09:05:07;;;;;;;;;;;;;;;;;;5054565;28;19967;-86
2022/06/10 09:07:33;;;;;;;;;;;;;;;;;;5054672;28;20271;-86
2022/06/10 09:09:59;;;;;;;;;;;;;;;;;;5054128;28;19948;-86
2022/06/10 09:12:25;;;;;;;;;;;;;;;;;;5046788;28;20335;-86
2022/06/10 09:14:51;;;;;;;;;;;;;;;;;;5064551;28;19932;-85
2022/06/10 09:17:17;;;;;;;;;;;;;;;;;;5040882;28;19908;-86
2022/06/10 09:19:43;;;;;;;;;;;;;;;;;;5053532;28;19936;-85
2022/06/10 09:22:09;;;;;;;;;;;;;;;;;;5055770;28;19905;-86
2022/06/10 09:24:34;;;;;;;;;;;;;;;;;;5053618;28;20382;-87
2022/06/10 09:27:00;;;;;;;;;;;;;;;;;;5053103;28;19951;-82
2022/06/10 09:29:26;;;;;;;;;;;;;;;;;;5053160;28;20021;-83
2022/06/10 09:31:53;;;;;;;;;;;;;;;;;;5049270;28;20445;-82
2022/06/10 09:34:19;;;;;;;;;;;;;;;;;;5060669;28;19909;-83
2022/06/10 09:36:45;;;;;;;;;;;;;;;;;;5041996;28;20023;-82
2022/06/10 09:40:35;;;;;;;;;;;;;;;;;;5038930;28;20371;-82
2022/06/10 09:41:57;;;;;;;;;;;;;;;;;;5040738;28;19911;-83
2022/06/10 09:44:23;;;;;;;;;;;;;;;;;;5053070;28;19905;-83
2022/06/10 09:46:49;;;;;;;;;;;;;;;;;;5053184;28;19967;-83
2022/06/10 09:49:15;;;;;;;;;;;;;;;;;;5049010;28;19944;-81
2022/06/10 09:51:43;;;;;;;;;;;614.90;2432.00;;;;;;5060390;28;19951;-82
2022/06/10 09:54:21;;;;;;;;;;;615.20;2432.00;;;;;;5063955;28;19966;-83
2022/06/10 09:56:53;;;;;;;;;;;640.00;2432.00;;;;;;5053738;28;19904;-82
2022/06/10 09:59:25;;;;;;;;;;;640.50;2432.00;;;;;;5052011;28;20327;-83
2022/06/10 10:01:57;;;;;;;;;;;640.30;2432.00;;;;;;5038659;28;19944;-84
2022/06/10 10:04:41;;;;;;;;;;;640.40;2432.00;;;;;;5052589;28;19944;-84
2022/06/10 10:07:13;;;;;;;;;;;665.60;2432.00;;;;;;5034231;28;19951;-85
2022/06/10 10:09:43;;;;;;;;;;;640.00;2432.00;;;;;;5044161;28;19917;-85
2022/06/10 10:12:09;;;;;;;;;;;615.20;2432.00;;;;;;5052491;28;19904;-84
2022/06/10 10:14:38;;;;;;;;;;;615.10;2432.00;;;;;;5052499;28;19904;-82
2022/06/10 10:17:22;;;;;;;;;;;640.70;2432.00;;;;;;5051366;28;20000;-83
2022/06/10 10:19:47;;;;;;;;;;;640.50;2432.00;;;;;;5043275;28;19991;-83
2022/06/10 10:22:16;;;;;;;;;;;640.40;2432.00;;;;;;5066143;28;20012;-82
2022/06/10 10:24:42;;;;;;;;;;;;;;;;;;5052211;28;19904;-83
2022/06/10 10:27:21;;;;;;;;;;;640.30;2432.00;;;;;;5039717;28;19905;-83
2022/06/10 10:29:49;;;;;;;;;;;640.40;2432.00;;;;;;5051997;28;19912;-85
2022/06/10 10:32:17;;;;;;;;;;;640.30;2432.00;;;;;;5050704;28;20368;-83
2022/06/10 10:34:50;;;;;;;;;;;640.70;2432.00;;;;;;5040510;28;19905;-83
2022/06/10 10:37:22;;;;;;;;;;;666.00;2432.00;;;;;;5051520;28;19911;-84
2022/06/10 10:39:49;;;;;;;;;;;666.10;2432.00;;;;;;5053137;28;20275;-84
2022/06/10 10:42:27;;;;;;;;;;;666.00;2432.00;;;;;;5045588;28;19905;-84
2022/06/10 10:45:04;;;;;;;;;;;665.70;2432.00;;;;;;5039505;28;19912;-83
2022/06/10 10:47:29;;;;;;;;;;;666.10;2432.00;;;;;;5051634;28;19912;-84
2022/06/10 10:50:01;;;;;;;;;;;665.90;2432.00;;;;;;5051909;28;19913;-83
2022/06/10 10:52:27;;;;;;;;;;;640.80;2432.00;;;;;;5051617;28;20272;-85
2022/06/10 10:54:55;;;;;;;;;;;640.00;2432.00;;;;;;5048703;28;19905;-83
2022/06/10 10:57:22;;;;;;;;;;;665.70;2432.00;;;;;;5041692;28;19905;-84
2022/06/10 10:59:53;;;;;;;;;;;666.20;2432.00;;;;;;5048358;28;19955;-83
2022/06/10 11:02:25;;;;;;;;;;;691.40;2432.00;;;;;;5051430;28;19904;-85
2022/06/10 11:04:51;;;;;;;;;;;692.10;2432.00;;;;;;5041654;28;20378;-84
2022/06/10 11:07:19;;;;;;;;;;;666.30;2432.00;;;;;;5047494;28;19904;-83
2022/06/10 11:09:47;;;;;;;;;;;691.50;2432.00;;;;;;5051447;28;19935;-83
2022/06/10 11:12:15;;;;;;;;;;;665.90;2432.00;;;;;;5049028;28;19905;-85
2022/06/10 11:14:40;;;;;;;;;;;666.00;2432.00;;;;;;5051288;28;19904;-85
2022/06/10 11:17:09;;;;;;;;;;;666.10;2432.00;;;;;;5050898;28;20336;-84
2022/06/10 11:19:35;;;;;;;;;;;665.60;2432.00;;;;;;5046269;28;19912;-82
2022/06/10 11:22:01;;;;;;;;;;;640.50;2432.00;;;;;;5051294;28;19905;-84
2022/06/10 11:24:28;;;;;;;;;;;640.10;2432.00;;;;;;5050718;28;20353;-84
2022/06/10 11:26:55;;;;;;;;;;;640.40;2432.00;;;;;;5051580;28;19931;-84
2022/06/10 11:29:21;;;;;;;;;;;615.30;2432.00;;;;;;5044868;28;19917;-83
2022/06/10 11:31:59;;;;;;;;;;;615.10;2432.00;;;;;;5051054;28;19923;-84
2022/06/10 11:34:27;;;;;;;;;;;640.20;2432.00;;;;;;5050897;28;19905;-83
2022/06/10 11:36:54;;;;;;;;;;;640.10;2432.00;;;;;;5051116;28;19950;-83
2022/06/10 11:39:19;;;;;;;;;;;640.40;2432.00;;;;;;5048282;28;19911;-83
2022/06/10 11:42:00;;;;;;;;;;;640.20;2432.00;;;;;;5067261;28;19904;-87
2022/06/10 11:44:29;;;;;;;;;;;665.60;2432.00;;;;;;5047930;28;19912;-84
2022/06/10 11:46:55;;;;;;;;;;;;;;;;;;5037349;28;19905;-84
2022/06/10 11:49:21;;;;;;;;;;;640.80;2432.00;;;;;;5051448;28;19962;-83
2022/06/10 11:51:57;;;;;;;;;;;640.90;2432.00;;;;;;5051357;28;19908;-84
2022/06/10 11:54:38;;;;;;;;;;;665.90;2432.00;;;;;;5044610;28;19905;-84
2022/06/10 12:00:00;;;;;;;;;;;;;;;;;;5052560;28;19950;-84
2022/06/10 12:02:30;;;;;;;;;;;;;;;;;;5051057;28;19909;-83
2022/06/10 12:05:02;;;;;;;;;;;793.70;1971.20;;;;;;5051337;28;19984;-84
2022/06/10 12:07:30;;;;;;;;;;;793.60;2048.00;;;;;;5051143;28;19920;-84
2022/06/10 12:09:58;;;;;;;;;;;743.10;2432.00;;;;;;5050984;28;19982;-84
2022/06/10 12:12:29;;;;;;;;;;;691.90;2432.00;;;;;;5051429;28;19950;-85
2022/06/10 12:14:56;;;;;;;;;;;691.60;2432.00;;;;;;5037260;28;19912;-84
2022/06/10 12:17:42;;;;;;;;;;;692.10;2432.00;;;;;;5031112;28;19905;-85
2022/06/10 12:20:07;;;;;;;;;;;717.20;2432.00;;;;;;5047323;28;20306;-85
2022/06/10 12:22:34;;;;;;;;;;;742.40;2432.00;;;;;;5051281;28;19905;-85
2022/06/10 12:25:00;;;;;;;;;;;742.70;2432.00;;;;;;5051073;28;19904;-84
2022/06/10 12:27:25;;;;;;;;;;;717.10;2432.00;;;;;;5052885;28;19927;-85
2022/06/10 12:29:54;;;;;;;;;;;717.20;2432.00;;;;;;5054886;28;20006;-85
2022/06/10 12:32:39;;;;;;;;;;;717.20;2432.00;;;;;;5054786;28;19978;-84
2022/06/10 12:35:08;;;;;;;;;;;742.80;2432.00;;;;;;5042678;28;19905;-85
2022/06/10 12:37:39;;;;;;;;;;;743.00;2432.00;;;;;;5050596;28;19916;-83
2022/06/10 12:40:08;;;;;;;;;;;742.90;2432.00;;;;;;5054437;28;20356;-83
2022/06/10 12:42:46;;;;;;;;;;;742.70;2432.00;;;;;;5053932;28;19909;-85
2022/06/10 12:45:16;;;;;;;;;;;717.70;2432.00;;;;;;5054598;28;19904;-84
2022/06/10 12:47:42;;;;;;;;;;;742.40;2432.00;;;;;;5054302;28;20034;-84
2022/06/10 12:50:20;;;;;;;;;;;717.60;2432.00;;;;;;5054128;28;19916;-84
2022/06/10 12:53:06;;;;;;;;;;;742.50;2432.00;;;;;;5053213;28;19930;-85
2022/06/10 12:55:31;;;;;;;;;;;743.30;2432.00;;;;;;5041438;28;19904;-83
2022/06/10 12:57:57;;;;;;;;;;;;;;;;;;5054716;28;20394;-84
2022/06/10 13:00:24;;;;;;;;;;;;;;;;;;5054532;28;19927;-83
2022/06/10 13:02:50;;;;;;;;;;;;;;;;;;5053875;28;19904;-83
2022/06/10 13:05:24;;;;;;;;;;;743.30;2278.40;;;;;;5050657;28;19909;-84
2022/06/10 13:07:50;;;;;;;;;;;;;;;;;;5042858;28;20275;-84
2022/06/10 13:10:33;;;;;;;;;;;640.90;2432.00;;;;;;5068211;28;19913;-84
2022/06/10 13:13:08;;;;;;;;;;;640.60;2432.00;;;;;;5054062;28;19999;-83
2022/06/10 13:15:34;;;;;;;;;;;640.60;2432.00;;;;;;5047438;28;19905;-85
2022/06/10 13:18:05;;;;;;;;;;;640.80;2432.00;;;;;;5050420;28;19909;-85
2022/06/10 13:20:37;;;;;;;;;;;665.70;2432.00;;;;;;5059938;28;19905;-85
2022/06/10 13:23:19;;;;;;;;;;;666.00;2432.00;;;;;;5061239;28;20007;-85
2022/06/10 13:25:49;;;;;;;;;;;666.20;2432.00;;;;;;5050682;28;19909;-85
2022/06/10 13:28:17;;;;;;;;;;;666.30;2432.00;;;;;;5051206;28;20386;-85
2022/06/10 13:30:43;;;;;;;;;;;666.10;2432.00;;;;;;5050734;28;19935;-84
2022/06/10 13:33:12;;;;;;;;;;;665.90;2432.00;;;;;;5030800;28;20323;-84
2022/06/10 13:35:44;;;;;;;;;;;666.00;2432.00;;;;;;5026719;28;19988;-85
2022/06/10 13:38:15;;;;;;;;;;;666.30;2432.00;;;;;;5049991;28;19947;-84
2022/06/10 13:40:45;;;;;;;;;;;666.50;2432.00;;;;;;5055269;28;19905;-85
2022/06/10 13:43:17;;;;;;;;;;;691.40;2432.00;;;;;;5036521;28;19904;-85
2022/06/10 13:45:45;;;;;;;;;;;691.40;2432.00;;;;;;5036751;28;19905;-84
2022/06/10 13:48:19;;;;;;;;;;;666.50;2432.00;;;;;;5036890;28;20279;-85
2022/06/10 13:51:12;;;;;;;;;;;665.90;2432.00;;;;;;5036302;28;19905;-85
2022/06/10 13:53:42;;;;;;;;;;;665.90;2432.00;;;;;;5042772;28;19905;-86
2022/06/10 13:56:13;;;;;;;;;;;665.90;2432.00;;;;;;5022389;28;19905;-85
2022/06/10 13:58:43;;;;;;;;;;;666.50;2432.00;;;;;;5022438;28;19991;-82
2022/06/10 14:01:17;;;;;;;;;;;691.20;2432.00;;;;;;5024737;28;19908;-84
2022/06/10 14:03:50;;;;;;;;;;;742.40;2432.00;;;;;;5035058;28;19935;-86
2022/06/10 14:06:16;;;;;;;;;;;;;;;;;;5033777;28;19911;-83
2022/06/10 14:08:42;;;;;;;;;;;;;;;;;;5041551;28;20007;-84
2022/06/10 14:11:08;;;;;;;;;;;;;;;;;;5033718;28;19908;-84
2022/06/10 14:13:34;;;;;;;;;;;;;;;;;;5036735;28;19927;-86
2022/06/10 14:16:00;;;;;;;;;;;;;;;;;;5027480;28;19916;-84
2022/06/10 14:18:26;;;;;;;;;;;;;;;;;;5023624;28;21243;-87
2022/06/10 14:20:53;;;;;;;;;;;819.80;1868.80;;;;;;5046819;28;19951;-85
2022/06/10 14:23:19;;;;;;;;;;;;;;;;;;5033779;28;19912;-84
2022/06/10 14:25:58;;;;;;;;;;;845.70;1638.40;;;;;;5050046;28;19904;-85
2022/06/10 14:28:24;;;;;;;;;;;844.90;1715.20;;;;;;5036398;28;19904;-84
2022/06/10 14:30:55;;;;;;;;;;;819.40;1945.60;;;;;;5034384;28;19955;-84